sensor_id;sensor_type;location;lat;lon;timestamp;pressure;altitude;pressure_sealevel;temperature;humidity
14117;BME280;7137;51.436;6.544;2023-02-28T00:01:25;102624.50;;;1.10;80.67
14117;BME280;7137;51.436;6.544;2023-02-28T00:04:27;102620.03;;;1.05;81.11
14117;BME280;7137;51.436;6.544;2023-02-28T00:07:29;102621.91;;;0.86;81.25
14117;BME280;7137;51.436;6.544;2023-02-28T00:10:31;102620.34;;;0.69;82.42
14117;BME280;7137;51.436;6.544;2023-02-28T00:13:34;102610.59;;;0.61;83.09
14117;BME280;7137;51.436;6.544;2023-02-28T00:16:38;102620.09;;;0.63;82.95
14117;BME280;7137;51.436;6.544;2023-02-28T00:19:39;102617.31;;;0.57;83.18
14117;BME280;7137;51.436;6.544;2023-02-28T00:22:43;102618.84;;;0.53;82.89
14117;BME280;7137;51.436;6.544;2023-02-28T00:25:45;102626.25;;;0.46;83.94
14117;BME280;7137;51.436;6.544;2023-02-28T00:28:47;102613.69;;;0.53;83.33
14117;BME280;7137;51.436;6.544;2023-02-28T00:31:50;102621.56;;;0.56;83.26
14117;BME280;7137;51.436;6.544;2023-02-28T00:34:51;102625.06;;;0.58;83.15
14117;BME280;7137;51.436;6.544;2023-02-28T00:37:53;102627.59;;;0.79;82.90
14117;BME280;7137;51.436;6.544;2023-02-28T00:40:54;102622.00;;;0.89;81.95
14117;BME280;7137;51.436;6.544;2023-02-28T00:43:56;102625.63;;;0.95;81.38
14117;BME280;7137;51.436;6.544;2023-02-28T00:46:59;102629.91;;;0.94;80.85
14117;BME280;7137;51.436;6.544;2023-02-28T00:50:05;102632.47;;;0.94;80.91
14117;BME280;7137;51.436;6.544;2023-02-28T00:53:07;102630.59;;;0.90;81.47
14117;BME280;7137;51.436;6.544;2023-02-28T00:56:09;102633.13;;;0.88;81.52
14117;BME280;7137;51.436;6.544;2023-02-28T00:59:10;102633.28;;;0.93;81.50
14117;BME280;7137;51.436;6.544;2023-02-28T01:02:13;102629.13;;;0.74;82.49
14117;BME280;7137;51.436;6.544;2023-02-28T01:05:15;102634.78;;;0.66;81.75
14117;BME280;7137;51.436;6.544;2023-02-28T01:08:17;102644.06;;;0.62;82.36
14117;BME280;7137;51.436;6.544;2023-02-28T01:11:18;102637.88;;;0.79;81.89
14117;BME280;7137;51.436;6.544;2023-02-28T01:14:20;102637.22;;;0.63;81.96
14117;BME280;7137;51.436;6.544;2023-02-28T01:17:23;102639.72;;;0.61;82.09
14117;BME280;7137;51.436;6.544;2023-02-28T01:20:24;102645.81;;;0.42;82.01
14117;BME280;7137;51.436;6.544;2023-02-28T01:23:26;102639.88;;;0.43;82.58
14117;BME280;7137;51.436;6.544;2023-02-28T01:26:27;102643.97;;;0.40;82.74
14117;BME280;7137;51.436;6.544;2023-02-28T01:29:29;102633.41;;;0.32;82.75
14117;BME280;7137;51.436;6.544;2023-02-28T01:32:32;102642.19;;;0.37;82.68
14117;BME280;7137;51.436;6.544;2023-02-28T01:35:34;102638.66;;;0.35;82.69
14117;BME280;7137;51.436;6.544;2023-02-28T01:38:36;102648.31;;;0.41;82.99
14117;BME280;7137;51.436;6.544;2023-02-28T01:41:38;102641.16;;;0.54;81.57
14117;BME280;7137;51.436;6.544;2023-02-28T01:45:01;102635.19;;;0.55;81.28
14117;BME280;7137;51.436;6.544;2023-02-28T01:48:07;102634.59;;;0.40;82.01
14117;BME280;7137;51.436;6.544;2023-02-28T01:51:12;102628.31;;;0.34;82.02
14117;BME280;7137;51.436;6.544;2023-02-28T01:54:17;102624.81;;;0.32;82.50
14117;BME280;7137;51.436;6.544;2023-02-28T01:57:22;102619.41;;;0.25;82.95
14117;BME280;7137;51.436;6.544;2023-02-28T02:00:26;102625.31;;;0.23;83.08
14117;BME280;7137;51.436;6.544;2023-02-28T02:03:31;102623.91;;;0.10;83.21
14117;BME280;7137;51.436;6.544;2023-02-28T02:06:37;102614.56;;;0.12;82.96
14117;BME280;7137;51.436;6.544;2023-02-28T02:09:39;102616.78;;;0.03;83.47
14117;BME280;7137;51.436;6.544;2023-02-28T02:13:15;102614.69;;;-0.06;84.20
14117;BME280;7137;51.436;6.544;2023-02-28T02:16:31;102610.41;;;0.14;84.05
14117;BME280;7137;51.436;6.544;2023-02-28T02:20:05;102603.56;;;0.15;83.54
14117;BME280;7137;51.436;6.544;2023-02-28T02:23:37;102603.00;;;0.22;82.61
14117;BME280;7137;51.436;6.544;2023-02-28T02:26:55;102604.38;;;0.35;82.49
14117;BME280;7137;51.436;6.544;2023-02-28T02:30:22;102603.06;;;0.44;81.64
14117;BME280;7137;51.436;6.544;2023-02-28T02:33:58;102599.31;;;0.57;81.14
14117;BME280;7137;51.436;6.544;2023-02-28T02:37:08;102604.72;;;0.65;80.45
14117;BME280;7137;51.436;6.544;2023-02-28T02:40:16;102608.81;;;0.59;79.86
14117;BME280;7137;51.436;6.544;2023-02-28T02:43:24;102610.53;;;0.59;80.32
14117;BME280;7137;51.436;6.544;2023-02-28T02:46:29;102611.28;;;0.56;80.73
14117;BME280;7137;51.436;6.544;2023-02-28T02:49:34;102608.94;;;0.63;80.03
14117;BME280;7137;51.436;6.544;2023-02-28T02:52:40;102607.81;;;0.56;80.28
14117;BME280;7137;51.436;6.544;2023-02-28T02:55:44;102602.31;;;0.26;81.87
14117;BME280;7137;51.436;6.544;2023-02-28T02:58:55;102605.56;;;0.22;81.90
14117;BME280;7137;51.436;6.544;2023-02-28T03:02:01;102604.06;;;0.27;81.64
14117;BME280;7137;51.436;6.544;2023-02-28T03:05:09;102614.09;;;0.21;81.61
14117;BME280;7137;51.436;6.544;2023-02-28T03:08:16;102606.63;;;0.06;82.61
14117;BME280;7137;51.436;6.544;2023-02-28T03:11:17;102607.97;;;-0.02;82.76
14117;BME280;7137;51.436;6.544;2023-02-28T03:14:26;102601.66;;;0.11;82.12
14117;BME280;7137;51.436;6.544;2023-02-28T03:17:53;102591.16;;;0.05;82.53
14117;BME280;7137;51.436;6.544;2023-02-28T03:21:06;102595.66;;;-0.11;83.26
14117;BME280;7137;51.436;6.544;2023-02-28T03:24:18;102595.78;;;-0.08;82.76
14117;BME280;7137;51.436;6.544;2023-02-28T03:27:24;102603.94;;;-0.16;83.54
14117;BME280;7137;51.436;6.544;2023-02-28T03:30:32;102603.06;;;0.03;82.81
14117;BME280;7137;51.436;6.544;2023-02-28T03:33:40;102602.44;;;0.08;82.61
14117;BME280;7137;51.436;6.544;2023-02-28T03:36:47;102602.25;;;0.24;81.22
14117;BME280;7137;51.436;6.544;2023-02-28T03:39:54;102602.38;;;0.07;82.51
14117;BME280;7137;51.436;6.544;2023-02-28T03:43:01;102604.09;;;-0.13;83.05
14117;BME280;7137;51.436;6.544;2023-02-28T03:46:08;102608.91;;;-0.40;85.07
14117;BME280;7137;51.436;6.544;2023-02-28T03:49:16;102610.44;;;-0.44;84.80
14117;BME280;7137;51.436;6.544;2023-02-28T03:52:23;102610.00;;;-0.54;85.07
14117;BME280;7137;51.436;6.544;2023-02-28T03:55:29;102606.88;;;-0.67;86.35
14117;BME280;7137;51.436;6.544;2023-02-28T03:58:38;102607.34;;;-0.75;86.24
14117;BME280;7137;51.436;6.544;2023-02-28T04:01:45;102610.56;;;-0.79;86.32
14117;BME280;7137;51.436;6.544;2023-02-28T04:04:47;102608.06;;;-0.78;86.53
14117;BME280;7137;51.436;6.544;2023-02-28T04:07:51;102612.75;;;-0.69;86.95
14117;BME280;7137;51.436;6.544;2023-02-28T04:10:57;102613.56;;;-0.70;86.18
14117;BME280;7137;51.436;6.544;2023-02-28T04:14:02;102612.41;;;-0.77;86.43
14117;BME280;7137;51.436;6.544;2023-02-28T04:17:04;102614.09;;;-0.77;86.48
14117;BME280;7137;51.436;6.544;2023-02-28T04:20:07;102613.19;;;-0.78;86.54
14117;BME280;7137;51.436;6.544;2023-02-28T04:23:12;102605.25;;;-0.65;85.77
14117;BME280;7137;51.436;6.544;2023-02-28T04:26:13;102611.25;;;-0.64;86.17
14117;BME280;7137;51.436;6.544;2023-02-28T04:29:19;102606.94;;;-0.46;84.60
14117;BME280;7137;51.436;6.544;2023-02-28T04:32:20;102617.47;;;-0.59;84.05
14117;BME280;7137;51.436;6.544;2023-02-28T04:35:22;102619.56;;;-0.70;84.25
14117;BME280;7137;51.436;6.544;2023-02-28T04:38:25;102614.16;;;-0.76;84.65
14117;BME280;7137;51.436;6.544;2023-02-28T04:41:26;102622.31;;;-0.84;84.93
14117;BME280;7137;51.436;6.544;2023-02-28T04:44:28;102616.72;;;-0.76;84.51
14117;BME280;7137;51.436;6.544;2023-02-28T04:47:29;102619.97;;;-0.61;84.10
14117;BME280;7137;51.436;6.544;2023-02-28T04:50:31;102623.41;;;-0.60;83.72
14117;BME280;7137;51.436;6.544;2023-02-28T04:53:35;102618.16;;;-0.63;84.39
14117;BME280;7137;51.436;6.544;2023-02-28T04:56:37;102619.13;;;-0.42;81.94
14117;BME280;7137;51.436;6.544;2023-02-28T04:59:38;102619.91;;;-0.43;81.94
14117;BME280;7137;51.436;6.544;2023-02-28T05:02:40;102622.75;;;-0.37;81.87
14117;BME280;7137;51.436;6.544;2023-02-28T05:05:41;102624.50;;;-0.55;81.90
14117;BME280;7137;51.436;6.544;2023-02-28T05:08:44;102625.09;;;-0.61;81.66
14117;BME280;7137;51.436;6.544;2023-02-28T05:11:46;102628.16;;;-0.69;82.36
14117;BME280;7137;51.436;6.544;2023-02-28T05:14:47;102625.84;;;-0.63;82.64
14117;BME280;7137;51.436;6.544;2023-02-28T05:17:49;102624.97;;;-0.64;81.12
14117;BME280;7137;51.436;6.544;2023-02-28T05:20:50;102634.34;;;-0.64;80.98
14117;BME280;7137;51.436;6.544;2023-02-28T05:23:54;102630.63;;;-0.71;81.41
14117;BME280;7137;51.436;6.544;2023-02-28T05:26:56;102632.78;;;-0.61;80.98
14117;BME280;7137;51.436;6.544;2023-02-28T05:29:58;102640.72;;;-0.56;79.94
14117;BME280;7137;51.436;6.544;2023-02-28T05:33:02;102637.72;;;-0.65;79.89
14117;BME280;7137;51.436;6.544;2023-02-28T05:36:05;102637.91;;;-0.80;80.12
14117;BME280;7137;51.436;6.544;2023-02-28T05:39:08;102636.97;;;-1.00;80.44
14117;BME280;7137;51.436;6.544;2023-02-28T05:42:13;102645.06;;;-1.10;80.96
14117;BME280;7137;51.436;6.544;2023-02-28T05:45:15;102648.09;;;-0.99;80.67
14117;BME280;7137;51.436;6.544;2023-02-28T05:48:17;102651.91;;;-0.91;80.57
14117;BME280;7137;51.436;6.544;2023-02-28T05:51:18;102642.34;;;-0.95;80.89
14117;BME280;7137;51.436;6.544;2023-02-28T05:54:21;102655.06;;;-0.79;79.94
14117;BME280;7137;51.436;6.544;2023-02-28T05:57:23;102656.69;;;-0.99;80.02
14117;BME280;7137;51.436;6.544;2023-02-28T06:00:25;102659.84;;;-1.04;80.05
14117;BME280;7137;51.436;6.544;2023-02-28T06:03:27;102652.50;;;-1.14;80.64
14117;BME280;7137;51.436;6.544;2023-02-28T06:06:29;102657.28;;;-1.22;81.05
14117;BME280;7137;51.436;6.544;2023-02-28T06:09:32;102645.78;;;-1.30;81.08
14117;BME280;7137;51.436;6.544;2023-02-28T06:12:35;102645.22;;;-1.25;80.93
14117;BME280;7137;51.436;6.544;2023-02-28T06:15:36;102657.81;;;-1.11;80.71
14117;BME280;7137;51.436;6.544;2023-02-28T06:18:38;102659.78;;;-1.06;80.16
14117;BME280;7137;51.436;6.544;2023-02-28T06:21:40;102667.16;;;-0.94;79.52
14117;BME280;7137;51.436;6.544;2023-02-28T06:24:43;102672.81;;;-1.19;80.74
14117;BME280;7137;51.436;6.544;2023-02-28T06:27:44;102669.19;;;-0.87;79.21
14117;BME280;7137;51.436;6.544;2023-02-28T06:30:46;102671.34;;;-0.96;80.02
14117;BME280;7137;51.436;6.544;2023-02-28T06:33:48;102674.72;;;-0.97;80.33
14117;BME280;7137;51.436;6.544;2023-02-28T06:36:51;102680.75;;;-0.60;77.77
14117;BME280;7137;51.436;6.544;2023-02-28T06:39:55;102680.41;;;-0.67;76.75
14117;BME280;7137;51.436;6.544;2023-02-28T06:42:57;102677.09;;;-0.65;78.52
14117;BME280;7137;51.436;6.544;2023-02-28T06:46:00;102686.69;;;-0.61;77.76
14117;BME280;7137;51.436;6.544;2023-02-28T06:49:02;102693.28;;;-0.66;77.69
14117;BME280;7137;51.436;6.544;2023-02-28T06:52:04;102691.81;;;-0.61;77.60
14117;BME280;7137;51.436;6.544;2023-02-28T06:55:08;102685.31;;;-0.72;77.88
14117;BME280;7137;51.436;6.544;2023-02-28T06:58:09;102693.09;;;-0.88;78.74
14117;BME280;7137;51.436;6.544;2023-02-28T07:01:16;102698.22;;;-0.88;78.10
14117;BME280;7137;51.436;6.544;2023-02-28T07:04:17;102694.34;;;-0.80;78.98
14117;BME280;7137;51.436;6.544;2023-02-28T07:07:19;102703.75;;;-0.61;78.03
14117;BME280;7137;51.436;6.544;2023-02-28T07:10:22;102704.94;;;-0.54;77.14
14117;BME280;7137;51.436;6.544;2023-02-28T07:13:24;102700.53;;;-0.57;77.21
14117;BME280;7137;51.436;6.544;2023-02-28T07:16:26;102710.41;;;-0.47;77.35
14117;BME280;7137;51.436;6.544;2023-02-28T07:19:27;102703.66;;;-0.45;77.91
14117;BME280;7137;51.436;6.544;2023-02-28T07:22:29;102702.19;;;-0.20;76.27
14117;BME280;7137;51.436;6.544;2023-02-28T07:25:32;102705.03;;;-0.14;75.02
14117;BME280;7137;51.436;6.544;2023-02-28T07:28:33;102698.09;;;0.03;73.63
14117;BME280;7137;51.436;6.544;2023-02-28T07:31:35;102713.00;;;0.11;72.93
14117;BME280;7137;51.436;6.544;2023-02-28T07:34:37;102707.47;;;0.21;73.24
14117;BME280;7137;51.436;6.544;2023-02-28T07:37:38;102719.78;;;0.28;72.76
14117;BME280;7137;51.436;6.544;2023-02-28T07:40:43;102718.84;;;0.47;72.35
14117;BME280;7137;51.436;6.544;2023-02-28T07:43:44;102714.91;;;0.55;71.05
14117;BME280;7137;51.436;6.544;2023-02-28T07:46:46;102713.22;;;0.56;70.56
14117;BME280;7137;51.436;6.544;2023-02-28T07:49:47;102714.81;;;0.73;70.60
14117;BME280;7137;51.436;6.544;2023-02-28T07:52:49;102715.00;;;0.99;70.10
14117;BME280;7137;51.436;6.544;2023-02-28T07:55:54;102719.59;;;1.07;70.07
14117;BME280;7137;51.436;6.544;2023-02-28T07:58:56;102719.75;;;1.33;68.45
14117;BME280;7137;51.436;6.544;2023-02-28T08:01:58;102720.72;;;1.81;66.87
14117;BME280;7137;51.436;6.544;2023-02-28T08:04:59;102725.81;;;2.26;64.52
14117;BME280;7137;51.436;6.544;2023-02-28T08:08:01;102731.31;;;5.76;55.17
14117;BME280;7137;51.436;6.544;2023-02-28T08:11:04;102734.81;;;7.77;46.00
14117;BME280;7137;51.436;6.544;2023-02-28T08:14:06;102726.41;;;10.56;40.25
14117;BME280;7137;51.436;6.544;2023-02-28T08:17:09;102731.63;;;10.78;39.46
14117;BME280;7137;51.436;6.544;2023-02-28T08:20:11;102740.28;;;10.40;38.54
14117;BME280;7137;51.436;6.544;2023-02-28T08:23:13;102727.28;;;10.64;37.83
14117;BME280;7137;51.436;6.544;2023-02-28T08:26:17;102731.59;;;11.34;37.64
14117;BME280;7137;51.436;6.544;2023-02-28T08:29:18;102727.13;;;10.06;37.90
14117;BME280;7137;51.436;6.544;2023-02-28T08:32:20;102727.00;;;12.05;35.35
14117;BME280;7137;51.436;6.544;2023-02-28T08:35:22;102736.34;;;14.20;32.34
14117;BME280;7137;51.436;6.544;2023-02-28T08:38:24;102732.44;;;13.87;30.55
14117;BME280;7137;51.436;6.544;2023-02-28T08:41:27;102722.25;;;12.68;32.92
14117;BME280;7137;51.436;6.544;2023-02-28T08:44:28;102726.19;;;12.00;34.49
14117;BME280;7137;51.436;6.544;2023-02-28T08:47:30;102726.94;;;12.20;33.57
14117;BME280;7137;51.436;6.544;2023-02-28T08:50:31;102728.91;;;13.05;32.17
14117;BME280;7137;51.436;6.544;2023-02-28T08:53:33;102726.66;;;14.84;29.04
14117;BME280;7137;51.436;6.544;2023-02-28T08:56:36;102730.59;;;13.94;29.60
14117;BME280;7137;51.436;6.544;2023-02-28T08:59:37;102732.38;;;15.55;28.66
14117;BME280;7137;51.436;6.544;2023-02-28T09:02:39;102720.97;;;17.09;25.47
14117;BME280;7137;51.436;6.544;2023-02-28T09:05:51;102722.38;;;16.14;27.13
14117;BME280;7137;51.436;6.544;2023-02-28T09:08:56;102721.66;;;17.17;25.47
14117;BME280;7137;51.436;6.544;2023-02-28T09:11:59;102715.69;;;16.38;26.05
14117;BME280;7137;51.436;6.544;2023-02-28T09:15:02;102723.91;;;15.84;24.37
14117;BME280;7137;51.436;6.544;2023-02-28T09:18:04;102717.19;;;14.74;26.32
14117;BME280;7137;51.436;6.544;2023-02-28T09:21:08;102709.28;;;13.46;28.37
14117;BME280;7137;51.436;6.544;2023-02-28T09:24:10;102709.09;;;14.84;27.36
14117;BME280;7137;51.436;6.544;2023-02-28T09:27:15;102704.34;;;13.91;27.86
14117;BME280;7137;51.436;6.544;2023-02-28T09:30:17;102705.50;;;15.83;27.08
14117;BME280;7137;51.436;6.544;2023-02-28T09:33:20;102705.75;;;12.55;29.53
14117;BME280;7137;51.436;6.544;2023-02-28T09:36:23;102709.63;;;13.13;28.35
14117;BME280;7137;51.436;6.544;2023-02-28T09:39:25;102702.16;;;12.64;30.32
14117;BME280;7137;51.436;6.544;2023-02-28T09:42:32;102698.50;;;10.51;31.88
14117;BME280;7137;51.436;6.544;2023-02-28T09:45:36;102704.59;;;10.28;31.44
14117;BME280;7137;51.436;6.544;2023-02-28T09:48:42;102700.34;;;12.73;30.28
14117;BME280;7137;51.436;6.544;2023-02-28T09:51:50;102691.84;;;12.44;31.02
14117;BME280;7137;51.436;6.544;2023-02-28T09:54:52;102693.28;;;13.68;29.26
14117;BME280;7137;51.436;6.544;2023-02-28T09:57:56;102700.69;;;14.03;28.77
14117;BME280;7137;51.436;6.544;2023-02-28T10:01:03;102692.28;;;11.51;30.49
14117;BME280;7137;51.436;6.544;2023-02-28T10:04:12;102691.03;;;9.17;33.55
14117;BME280;7137;51.436;6.544;2023-02-28T10:07:23;102691.72;;;8.91;34.08
14117;BME280;7137;51.436;6.544;2023-02-28T10:10:36;102696.19;;;8.14;34.87
14117;BME280;7137;51.436;6.544;2023-02-28T10:13:48;102686.75;;;8.23;35.20
14117;BME280;7137;51.436;6.544;2023-02-28T10:16:53;102693.00;;;8.39;36.02
14117;BME280;7137;51.436;6.544;2023-02-28T10:20:02;102689.94;;;7.30;35.65
14117;BME280;7137;51.436;6.544;2023-02-28T10:23:13;102680.25;;;7.85;36.83
14117;BME280;7137;51.436;6.544;2023-02-28T10:26:18;102675.50;;;8.27;36.39
14117;BME280;7137;51.436;6.544;2023-02-28T10:29:21;102681.06;;;7.78;36.32
14117;BME280;7137;51.436;6.544;2023-02-28T10:32:25;102680.41;;;7.98;35.70
14117;BME280;7137;51.436;6.544;2023-02-28T10:35:28;102682.47;;;8.30;37.10
14117;BME280;7137;51.436;6.544;2023-02-28T10:38:33;102677.63;;;8.63;36.29
14117;BME280;7137;51.436;6.544;2023-02-28T10:41:42;102677.44;;;7.66;37.73
14117;BME280;7137;51.436;6.544;2023-02-28T10:44:46;102680.03;;;7.66;37.91
14117;BME280;7137;51.436;6.544;2023-02-28T10:47:53;102680.69;;;7.49;37.30
14117;BME280;7137;51.436;6.544;2023-02-28T10:50:55;102669.06;;;7.22;38.17
14117;BME280;7137;51.436;6.544;2023-02-28T10:53:58;102670.97;;;7.34;38.32
14117;BME280;7137;51.436;6.544;2023-02-28T10:57:08;102664.53;;;7.09;38.30
14117;BME280;7137;51.436;6.544;2023-02-28T11:00:16;102669.13;;;7.27;38.28
14117;BME280;7137;51.436;6.544;2023-02-28T11:03:24;102676.63;;;7.07;38.31
14117;BME280;7137;51.436;6.544;2023-02-28T11:06:29;102672.09;;;6.41;39.48
14117;BME280;7137;51.436;6.544;2023-02-28T11:09:34;102670.84;;;5.77;40.24
14117;BME280;7137;51.436;6.544;2023-02-28T11:12:38;102669.19;;;5.36;42.26
14117;BME280;7137;51.436;6.544;2023-02-28T11:15:50;102660.13;;;5.19;41.28
14117;BME280;7137;51.436;6.544;2023-02-28T11:18:54;102674.41;;;5.40;41.84
14117;BME280;7137;51.436;6.544;2023-02-28T11:22:01;102669.59;;;5.56;41.39
14117;BME280;7137;51.436;6.544;2023-02-28T11:25:08;102665.91;;;5.47;41.89
14117;BME280;7137;51.436;6.544;2023-02-28T11:28:25;102661.47;;;5.02;42.52
14117;BME280;7137;51.436;6.544;2023-02-28T11:31:28;102664.25;;;5.10;43.01
14117;BME280;7137;51.436;6.544;2023-02-28T11:34:31;102662.88;;;5.66;42.68
14117;BME280;7137;51.436;6.544;2023-02-28T11:37:33;102674.47;;;5.43;42.38
14117;BME280;7137;51.436;6.544;2023-02-28T11:40:41;102671.63;;;5.30;43.81
14117;BME280;7137;51.436;6.544;2023-02-28T11:43:59;102665.25;;;5.55;43.42
14117;BME280;7137;51.436;6.544;2023-02-28T11:47:10;102666.09;;;6.43;41.88
14117;BME280;7137;51.436;6.544;2023-02-28T11:50:22;102665.41;;;7.74;39.51
14117;BME280;7137;51.436;6.544;2023-02-28T11:53:40;102659.16;;;8.38;37.74
14117;BME280;7137;51.436;6.544;2023-02-28T11:56:47;102654.31;;;7.89;38.13
14117;BME280;7137;51.436;6.544;2023-02-28T11:59:58;102644.31;;;8.32;36.10
14117;BME280;7137;51.436;6.544;2023-02-28T12:03:12;102638.69;;;8.86;34.66
14117;BME280;7137;51.436;6.544;2023-02-28T12:06:21;102643.69;;;7.04;38.81
14117;BME280;7137;51.436;6.544;2023-02-28T12:09:42;102641.53;;;5.79;40.15
14117;BME280;7137;51.436;6.544;2023-02-28T12:12:53;102635.19;;;5.23;42.17
14117;BME280;7137;51.436;6.544;2023-02-28T12:16:27;102637.22;;;5.36;42.72
14117;BME280;7137;51.436;6.544;2023-02-28T12:19:40;102631.56;;;5.57;41.82
14117;BME280;7137;51.436;6.544;2023-02-28T12:22:50;102622.66;;;5.86;42.07
14117;BME280;7137;51.436;6.544;2023-02-28T12:26:01;102614.75;;;5.80;41.29
14117;BME280;7137;51.436;6.544;2023-02-28T12:29:10;102601.47;;;5.63;41.07
14117;BME280;7137;51.436;6.544;2023-02-28T12:32:16;102602.28;;;5.61;42.11
14117;BME280;7137;51.436;6.544;2023-02-28T12:35:25;102588.84;;;5.82;41.98
14117;BME280;7137;51.436;6.544;2023-02-28T12:38:34;102590.69;;;5.87;40.94
14117;BME280;7137;51.436;6.544;2023-02-28T12:41:41;102573.88;;;6.12;41.27
14117;BME280;7137;51.436;6.544;2023-02-28T12:44:49;102581.91;;;6.28;40.66
14117;BME280;7137;51.436;6.544;2023-02-28T12:47:57;102573.00;;;6.12;40.37
14117;BME280;7137;51.436;6.544;2023-02-28T12:51:01;102574.03;;;6.21;42.49
14117;BME280;7137;51.436;6.544;2023-02-28T12:54:12;102569.97;;;6.37;42.04
14117;BME280;7137;51.436;6.544;2023-02-28T12:57:21;102576.47;;;6.14;40.83
14117;BME280;7137;51.436;6.544;2023-02-28T13:00:33;102567.94;;;6.19;41.47
14117;BME280;7137;51.436;6.544;2023-02-28T13:04:02;102563.22;;;6.48;41.65
14117;BME280;7137;51.436;6.544;2023-02-28T13:07:29;102561.75;;;6.66;41.54
14117;BME280;7137;51.436;6.544;2023-02-28T13:10:39;102560.44;;;6.38;39.91
14117;BME280;7137;51.436;6.544;2023-02-28T13:13:44;102553.97;;;6.67;40.40
14117;BME280;7137;51.436;6.544;2023-02-28T13:17:09;102555.94;;;6.83;40.41
14117;BME280;7137;51.436;6.544;2023-02-28T13:20:16;102544.63;;;6.78;40.55
14117;BME280;7137;51.436;6.544;2023-02-28T13:23:39;102550.72;;;6.82;40.90
14117;BME280;7137;51.436;6.544;2023-02-28T13:27:20;102538.59;;;6.81;42.02
14117;BME280;7137;51.436;6.544;2023-02-28T13:34:13;102537.09;;;7.00;41.44
14117;BME280;7137;51.436;6.544;2023-02-28T13:37:37;102528.47;;;7.02;41.47
14117;BME280;7137;51.436;6.544;2023-02-28T13:40:44;102538.59;;;6.82;41.83
14117;BME280;7137;51.436;6.544;2023-02-28T13:44:03;102528.41;;;6.96;42.10
14117;BME280;7137;51.436;6.544;2023-02-28T13:47:24;102528.44;;;7.01;41.40
14117;BME280;7137;51.436;6.544;2023-02-28T13:50:32;102524.38;;;7.20;42.37
14117;BME280;7137;51.436;6.544;2023-02-28T13:53:50;102532.19;;;7.24;41.43
14117;BME280;7137;51.436;6.544;2023-02-28T13:57:06;102527.66;;;7.06;41.44
14117;BME280;7137;51.436;6.544;2023-02-28T14:00:23;102533.25;;;6.70;41.62
14117;BME280;7137;51.436;6.544;2023-02-28T14:06:54;102524.31;;;6.51;43.37
14117;BME280;7137;51.436;6.544;2023-02-28T14:10:00;102516.56;;;6.54;41.86
14117;BME280;7137;51.436;6.544;2023-02-28T14:13:17;102520.22;;;6.67;42.99
14117;BME280;7137;51.436;6.544;2023-02-28T14:16:39;102519.69;;;6.93;43.33
14117;BME280;7137;51.436;6.544;2023-02-28T14:19:45;102519.75;;;6.99;42.84
14117;BME280;7137;51.436;6.544;2023-02-28T14:23:01;102514.28;;;6.76;42.38
14117;BME280;7137;51.436;6.544;2023-02-28T14:26:18;102511.09;;;6.98;42.58
14117;BME280;7137;51.436;6.544;2023-02-28T14:29:43;102511.56;;;6.68;43.15
14117;BME280;7137;51.436;6.544;2023-02-28T14:32:54;102515.91;;;6.69;43.90
14117;BME280;7137;51.436;6.544;2023-02-28T14:36:05;102512.50;;;6.73;45.16
14117;BME280;7137;51.436;6.544;2023-02-28T14:39:12;102504.78;;;6.78;44.53
14117;BME280;7137;51.436;6.544;2023-02-28T14:42:29;102507.59;;;6.95;43.87
14117;BME280;7137;51.436;6.544;2023-02-28T14:45:34;102507.66;;;7.02;42.77
14117;BME280;7137;51.436;6.544;2023-02-28T14:48:37;102514.69;;;6.46;45.60
14117;BME280;7137;51.436;6.544;2023-02-28T14:51:40;102508.63;;;6.45;46.87
14117;BME280;7137;51.436;6.544;2023-02-28T14:54:41;102509.72;;;6.61;45.53
14117;BME280;7137;51.436;6.544;2023-02-28T14:57:51;102505.00;;;6.33;46.04
14117;BME280;7137;51.436;6.544;2023-02-28T15:00:57;102504.78;;;6.19;46.16
14117;BME280;7137;51.436;6.544;2023-02-28T15:04:01;102507.16;;;6.05;46.81
14117;BME280;7137;51.436;6.544;2023-02-28T15:07:10;102498.94;;;5.79;47.92
14117;BME280;7137;51.436;6.544;2023-02-28T15:10:17;102499.66;;;5.72;48.44
14117;BME280;7137;51.436;6.544;2023-02-28T15:13:20;102499.91;;;5.86;48.34
14117;BME280;7137;51.436;6.544;2023-02-28T15:16:26;102496.63;;;5.94;47.49
14117;BME280;7137;51.436;6.544;2023-02-28T15:19:32;102491.03;;;6.23;46.94
14117;BME280;7137;51.436;6.544;2023-02-28T15:22:36;102503.25;;;6.32;46.47
14117;BME280;7137;51.436;6.544;2023-02-28T15:25:40;102503.34;;;6.36;45.98
14117;BME280;7137;51.436;6.544;2023-02-28T15:28:42;102507.50;;;6.27;45.56
14117;BME280;7137;51.436;6.544;2023-02-28T15:31:49;102507.56;;;6.31;46.73
14117;BME280;7137;51.436;6.544;2023-02-28T15:34:52;102505.75;;;6.25;45.42
14117;BME280;7137;51.436;6.544;2023-02-28T15:37:56;102497.31;;;6.39;45.31
14117;BME280;7137;51.436;6.544;2023-02-28T15:40:58;102497.34;;;6.42;46.13
14117;BME280;7137;51.436;6.544;2023-02-28T15:44:17;102505.47;;;6.06;48.99
14117;BME280;7137;51.436;6.544;2023-02-28T15:47:22;102501.44;;;5.76;50.00
14117;BME280;7137;51.436;6.544;2023-02-28T15:50:27;102502.28;;;5.74;50.23
14117;BME280;7137;51.436;6.544;2023-02-28T15:53:31;102496.78;;;5.55;50.48
14117;BME280;7137;51.436;6.544;2023-02-28T15:56:35;102499.97;;;5.42;50.99
14117;BME280;7137;51.436;6.544;2023-02-28T15:59:48;102502.50;;;5.38;51.13
14117;BME280;7137;51.436;6.544;2023-02-28T16:02:52;102494.78;;;5.41;50.93
14117;BME280;7137;51.436;6.544;2023-02-28T16:06:33;102499.06;;;5.39;50.77
14117;BME280;7137;51.436;6.544;2023-02-28T16:09:35;102503.47;;;5.44;50.79
14117;BME280;7137;51.436;6.544;2023-02-28T16:12:38;102501.75;;;5.45;50.66
14117;BME280;7137;51.436;6.544;2023-02-28T16:15:42;102496.50;;;5.40;51.03
14117;BME280;7137;51.436;6.544;2023-02-28T16:18:45;102511.13;;;5.36;50.62
14117;BME280;7137;51.436;6.544;2023-02-28T16:21:47;102500.66;;;5.33;49.94
14117;BME280;7137;51.436;6.544;2023-02-28T16:24:49;102500.84;;;5.43;49.74
14117;BME280;7137;51.436;6.544;2023-02-28T16:27:52;102504.00;;;5.26;50.42
14117;BME280;7137;51.436;6.544;2023-02-28T16:30:54;102500.75;;;5.36;49.54
14117;BME280;7137;51.436;6.544;2023-02-28T16:33:58;102505.84;;;5.33;49.74
14117;BME280;7137;51.436;6.544;2023-02-28T16:36:59;102503.16;;;5.27;50.00
14117;BME280;7137;51.436;6.544;2023-02-28T16:40:01;102509.28;;;5.32;50.15
14117;BME280;7137;51.436;6.544;2023-02-28T16:43:05;102519.47;;;5.22;50.67